sensor_id;sensor_type;location;lat;lon;timestamp;P1;durP1;ratioP1;P2;durP2;ratioP2
1467;SDS011;727;48.892;9.544;2023-09-30T00:00:09;6.17;;;3.67;;
1467;SDS011;727;48.892;9.544;2023-09-30T00:02:36;6.80;;;3.37;;
1467;SDS011;727;48.892;9.544;2023-09-30T00:05:03;4.27;;;3.03;;
1467;SDS011;727;48.892;9.544;2023-09-30T00:07:30;3.00;;;2.47;;
1467;SDS011;727;48.892;9.544;2023-09-30T00:09:58;9.00;;;3.40;;
1467;SDS011;727;48.892;9.544;2023-09-30T00:12:25;5.03;;;2.60;;
1467;SDS011;727;48.892;9.544;2023-09-30T00:14:52;4.27;;;3.43;;
1467;SDS011;727;48.892;9.544;2023-09-30T00:17:19;4.73;;;2.63;;
1467;SDS011;727;48.892;9.544;2023-09-30T00:19:46;5.40;;;3.10;;
1467;SDS011;727;48.892;9.544;2023-09-30T00:22:12;7.13;;;2.67;;
1467;SDS011;727;48.892;9.544;2023-09-30T00:24:39;3.20;;;2.90;;
1467;SDS011;727;48.892;9.544;2023-09-30T00:27:07;3.90;;;2.93;;
1467;SDS011;727;48.892;9.544;2023-09-30T00:29:34;4.00;;;3.17;;
1467;SDS011;727;48.892;9.544;2023-09-30T00:32:01;3.93;;;2.63;;
1467;SDS011;727;48.892;9.544;2023-09-30T00:34:28;3.67;;;3.03;;
1467;SDS011;727;48.892;9.544;2023-09-30T00:36:58;7.60;;;2.63;;
1467;SDS011;727;48.892;9.544;2023-09-30T00:39:24;4.43;;;3.23;;
1467;SDS011;727;48.892;9.544;2023-09-30T00:41:55;4.37;;;2.97;;
1467;SDS011;727;48.892;9.544;2023-09-30T00:44:24;2.90;;;2.30;;
1467;SDS011;727;48.892;9.544;2023-09-30T00:46:52;7.00;;;3.37;;
1467;SDS011;727;48.892;9.544;2023-09-30T00:49:20;6.13;;;2.93;;
1467;SDS011;727;48.892;9.544;2023-09-30T00:51:47;2.70;;;2.10;;
1467;SDS011;727;48.892;9.544;2023-09-30T00:54:15;6.13;;;2.90;;
1467;SDS011;727;48.892;9.544;2023-09-30T00:56:43;4.77;;;3.00;;
1467;SDS011;727;48.892;9.544;2023-09-30T00:59:11;3.53;;;3.23;;
1467;SDS011;727;48.892;9.544;2023-09-30T01:01:40;3.20;;;2.60;;
1467;SDS011;727;48.892;9.544;2023-09-30T01:04:08;6.73;;;3.10;;
1467;SDS011;727;48.892;9.544;2023-09-30T01:06:35;4.30;;;2.73;;
1467;SDS011;727;48.892;9.544;2023-09-30T01:09:02;6.60;;;3.10;;
1467;SDS011;727;48.892;9.544;2023-09-30T01:11:29;7.00;;;3.40;;
1467;SDS011;727;48.892;9.544;2023-09-30T01:13:56;2.60;;;2.40;;
1467;SDS011;727;48.892;9.544;2023-09-30T01:16:23;6.50;;;3.87;;
1467;SDS011;727;48.892;9.544;2023-09-30T01:18:50;4.40;;;2.60;;
1467;SDS011;727;48.892;9.544;2023-09-30T01:21:18;4.23;;;3.33;;
1467;SDS011;727;48.892;9.544;2023-09-30T01:23:46;5.43;;;2.90;;
1467;SDS011;727;48.892;9.544;2023-09-30T01:26:13;3.43;;;3.13;;
1467;SDS011;727;48.892;9.544;2023-09-30T01:28:40;3.30;;;2.80;;
1467;SDS011;727;48.892;9.544;2023-09-30T01:31:07;4.13;;;2.77;;
1467;SDS011;727;48.892;9.544;2023-09-30T01:33:34;9.20;;;3.20;;
1467;SDS011;727;48.892;9.544;2023-09-30T01:36:01;3.13;;;2.17;;
1467;SDS011;727;48.892;9.544;2023-09-30T01:38:27;9.53;;;3.80;;
1467;SDS011;727;48.892;9.544;2023-09-30T01:40:55;3.37;;;3.03;;
1467;SDS011;727;48.892;9.544;2023-09-30T01:43:22;5.03;;;3.57;;
1467;SDS011;727;48.892;9.544;2023-09-30T01:45:49;4.93;;;3.17;;
1467;SDS011;727;48.892;9.544;2023-09-30T01:48:15;3.27;;;2.60;;
1467;SDS011;727;48.892;9.544;2023-09-30T01:50:42;4.37;;;2.93;;
1467;SDS011;727;48.892;9.544;2023-09-30T01:53:09;6.30;;;3.03;;
1467;SDS011;727;48.892;9.544;2023-09-30T01:55:36;3.77;;;3.00;;
1467;SDS011;727;48.892;9.544;2023-09-30T01:58:04;6.50;;;5.43;;
1467;SDS011;727;48.892;9.544;2023-09-30T02:00:31;4.90;;;4.50;;
1467;SDS011;727;48.892;9.544;2023-09-30T02:02:57;6.63;;;3.00;;
1467;SDS011;727;48.892;9.544;2023-09-30T02:05:25;4.10;;;2.90;;
1467;SDS011;727;48.892;9.544;2023-09-30T02:07:52;4.13;;;3.20;;
1467;SDS011;727;48.892;9.544;2023-09-30T02:10:18;3.37;;;3.07;;
1467;SDS011;727;48.892;9.544;2023-09-30T02:12:45;5.03;;;3.70;;
1467;SDS011;727;48.892;9.544;2023-09-30T02:15:14;2.77;;;2.57;;
1467;SDS011;727;48.892;9.544;2023-09-30T02:17:41;3.73;;;3.30;;
1467;SDS011;727;48.892;9.544;2023-09-30T02:20:10;3.87;;;3.47;;
1467;SDS011;727;48.892;9.544;2023-09-30T02:22:41;5.87;;;3.83;;
1467;SDS011;727;48.892;9.544;2023-09-30T02:25:08;7.00;;;3.73;;
1467;SDS011;727;48.892;9.544;2023-09-30T02:27:37;5.47;;;3.90;;
1467;SDS011;727;48.892;9.544;2023-09-30T02:30:06;6.13;;;4.20;;
1467;SDS011;727;48.892;9.544;2023-09-30T02:32:35;4.03;;;3.63;;
1467;SDS011;727;48.892;9.544;2023-09-30T02:35:02;5.27;;;3.90;;
1467;SDS011;727;48.892;9.544;2023-09-30T02:37:31;4.60;;;2.93;;
1467;SDS011;727;48.892;9.544;2023-09-30T02:40:00;5.57;;;3.73;;
1467;SDS011;727;48.892;9.544;2023-09-30T02:42:29;8.53;;;4.80;;
1467;SDS011;727;48.892;9.544;2023-09-30T02:44:55;7.90;;;4.67;;
1467;SDS011;727;48.892;9.544;2023-09-30T02:47:22;5.90;;;4.77;;
1467;SDS011;727;48.892;9.544;2023-09-30T02:49:50;8.20;;;5.10;;
1467;SDS011;727;48.892;9.544;2023-09-30T02:52:17;4.67;;;4.03;;
1467;SDS011;727;48.892;9.544;2023-09-30T02:54:43;7.13;;;5.17;;
1467;SDS011;727;48.892;9.544;2023-09-30T02:57:10;5.50;;;4.40;;
1467;SDS011;727;48.892;9.544;2023-09-30T02:59:37;9.17;;;5.50;;
1467;SDS011;727;48.892;9.544;2023-09-30T03:02:03;5.20;;;4.17;;
1467;SDS011;727;48.892;9.544;2023-09-30T03:04:30;12.63;;;5.60;;
1467;SDS011;727;48.892;9.544;2023-09-30T03:07:00;4.53;;;3.97;;
1467;SDS011;727;48.892;9.544;2023-09-30T03:09:27;6.30;;;3.53;;
1467;SDS011;727;48.892;9.544;2023-09-30T03:11:54;3.60;;;3.30;;
1467;SDS011;727;48.892;9.544;2023-09-30T03:14:21;4.73;;;4.30;;
1467;SDS011;727;48.892;9.544;2023-09-30T03:16:48;8.07;;;4.70;;
1467;SDS011;727;48.892;9.544;2023-09-30T03:19:15;6.27;;;5.03;;
1467;SDS011;727;48.892;9.544;2023-09-30T03:21:42;5.90;;;4.07;;
1467;SDS011;727;48.892;9.544;2023-09-30T03:24:11;6.13;;;4.33;;
1467;SDS011;727;48.892;9.544;2023-09-30T03:26:37;7.00;;;3.50;;
1467;SDS011;727;48.892;9.544;2023-09-30T03:29:06;9.33;;;4.20;;
1467;SDS011;727;48.892;9.544;2023-09-30T03:31:34;9.20;;;4.73;;
1467;SDS011;727;48.892;9.544;2023-09-30T03:34:00;5.80;;;3.53;;
1467;SDS011;727;48.892;9.544;2023-09-30T03:36:29;8.17;;;4.47;;
1467;SDS011;727;48.892;9.544;2023-09-30T03:38:56;4.63;;;4.23;;
1467;SDS011;727;48.892;9.544;2023-09-30T03:41:32;4.90;;;4.33;;
1467;SDS011;727;48.892;9.544;2023-09-30T03:44:00;5.57;;;3.80;;
1467;SDS011;727;48.892;9.544;2023-09-30T03:46:27;8.87;;;3.50;;
1467;SDS011;727;48.892;9.544;2023-09-30T03:48:54;9.30;;;4.37;;
1467;SDS011;727;48.892;9.544;2023-09-30T03:51:21;5.90;;;3.80;;
1467;SDS011;727;48.892;9.544;2023-09-30T03:53:50;4.57;;;3.33;;
1467;SDS011;727;48.892;9.544;2023-09-30T03:56:17;9.87;;;3.70;;
1467;SDS011;727;48.892;9.544;2023-09-30T03:58:45;5.00;;;4.60;;
1467;SDS011;727;48.892;9.544;2023-09-30T04:01:13;7.10;;;5.00;;
1467;SDS011;727;48.892;9.544;2023-09-30T04:03:41;3.90;;;3.47;;
1467;SDS011;727;48.892;9.544;2023-09-30T04:06:09;5.40;;;4.30;;
1467;SDS011;727;48.892;9.544;2023-09-30T04:08:36;10.43;;;5.20;;
1467;SDS011;727;48.892;9.544;2023-09-30T04:11:03;6.03;;;3.90;;
1467;SDS011;727;48.892;9.544;2023-09-30T04:13:30;6.73;;;4.23;;
1467;SDS011;727;48.892;9.544;2023-09-30T04:15:59;5.73;;;4.20;;
1467;SDS011;727;48.892;9.544;2023-09-30T04:18:26;5.30;;;4.60;;
1467;SDS011;727;48.892;9.544;2023-09-30T04:20:53;5.10;;;4.60;;
1467;SDS011;727;48.892;9.544;2023-09-30T04:23:20;7.03;;;6.00;;
1467;SDS011;727;48.892;9.544;2023-09-30T04:25:47;6.50;;;4.70;;
1467;SDS011;727;48.892;9.544;2023-09-30T04:28:14;7.50;;;5.43;;
1467;SDS011;727;48.892;9.544;2023-09-30T04:30:45;5.80;;;4.60;;
1467;SDS011;727;48.892;9.544;2023-09-30T04:33:14;6.23;;;4.40;;
1467;SDS011;727;48.892;9.544;2023-09-30T04:35:42;5.67;;;4.40;;
1467;SDS011;727;48.892;9.544;2023-09-30T04:38:09;5.33;;;4.03;;
1467;SDS011;727;48.892;9.544;2023-09-30T04:40:35;5.03;;;3.83;;
1467;SDS011;727;48.892;9.544;2023-09-30T04:43:02;5.73;;;3.97;;
1467;SDS011;727;48.892;9.544;2023-09-30T04:45:30;4.90;;;4.10;;
1467;SDS011;727;48.892;9.544;2023-09-30T04:47:58;5.10;;;4.20;;
1467;SDS011;727;48.892;9.544;2023-09-30T04:50:27;8.10;;;4.20;;
1467;SDS011;727;48.892;9.544;2023-09-30T04:52:55;6.80;;;3.87;;
1467;SDS011;727;48.892;9.544;2023-09-30T04:55:22;6.60;;;4.60;;
1467;SDS011;727;48.892;9.544;2023-09-30T04:57:50;7.43;;;5.00;;
1467;SDS011;727;48.892;9.544;2023-09-30T05:00:17;6.10;;;5.17;;
1467;SDS011;727;48.892;9.544;2023-09-30T05:02:50;5.43;;;4.10;;
1467;SDS011;727;48.892;9.544;2023-09-30T05:05:17;6.10;;;4.60;;
1467;SDS011;727;48.892;9.544;2023-09-30T05:07:45;7.03;;;5.23;;
1467;SDS011;727;48.892;9.544;2023-09-30T05:10:12;8.10;;;5.57;;
1467;SDS011;727;48.892;9.544;2023-09-30T05:12:41;6.57;;;5.07;;
1467;SDS011;727;48.892;9.544;2023-09-30T05:15:10;9.17;;;5.63;;
1467;SDS011;727;48.892;9.544;2023-09-30T05:17:37;6.57;;;5.67;;
1467;SDS011;727;48.892;9.544;2023-09-30T05:20:05;6.33;;;5.20;;
1467;SDS011;727;48.892;9.544;2023-09-30T05:22:32;10.23;;;5.30;;
1467;SDS011;727;48.892;9.544;2023-09-30T05:25:00;6.33;;;5.33;;
1467;SDS011;727;48.892;9.544;2023-09-30T05:27:27;10.70;;;5.10;;
1467;SDS011;727;48.892;9.544;2023-09-30T05:29:54;5.97;;;5.20;;
1467;SDS011;727;48.892;9.544;2023-09-30T05:32:21;5.57;;;4.77;;
1467;SDS011;727;48.892;9.544;2023-09-30T05:34:48;5.53;;;4.50;;
1467;SDS011;727;48.892;9.544;2023-09-30T05:37:15;6.00;;;5.43;;
1467;SDS011;727;48.892;9.544;2023-09-30T05:39:42;5.60;;;4.10;;
1467;SDS011;727;48.892;9.544;2023-09-30T05:42:12;5.07;;;4.57;;
1467;SDS011;727;48.892;9.544;2023-09-30T05:44:39;6.63;;;5.20;;
1467;SDS011;727;48.892;9.544;2023-09-30T05:47:06;5.23;;;4.83;;
1467;SDS011;727;48.892;9.544;2023-09-30T05:49:33;8.87;;;4.97;;
1467;SDS011;727;48.892;9.544;2023-09-30T05:52:01;4.80;;;4.40;;
1467;SDS011;727;48.892;9.544;2023-09-30T05:54:28;6.43;;;5.23;;
1467;SDS011;727;48.892;9.544;2023-09-30T05:56:55;9.47;;;5.17;;
1467;SDS011;727;48.892;9.544;2023-09-30T05:59:23;5.93;;;4.63;;
1467;SDS011;727;48.892;9.544;2023-09-30T06:01:51;5.20;;;4.70;;
1467;SDS011;727;48.892;9.544;2023-09-30T06:04:17;6.40;;;4.70;;
1467;SDS011;727;48.892;9.544;2023-09-30T06:06:46;6.70;;;5.70;;
1467;SDS011;727;48.892;9.544;2023-09-30T06:09:13;10.40;;;5.00;;
1467;SDS011;727;48.892;9.544;2023-09-30T06:11:39;7.47;;;6.03;;
1467;SDS011;727;48.892;9.544;2023-09-30T06:14:07;7.20;;;5.17;;
1467;SDS011;727;48.892;9.544;2023-09-30T06:16:35;5.90;;;4.23;;
1467;SDS011;727;48.892;9.544;2023-09-30T06:19:01;5.13;;;4.57;;
1467;SDS011;727;48.892;9.544;2023-09-30T06:21:29;7.87;;;5.60;;
1467;SDS011;727;48.892;9.544;2023-09-30T06:23:56;6.27;;;5.67;;
1467;SDS011;727;48.892;9.544;2023-09-30T06:26:23;8.00;;;5.00;;
1467;SDS011;727;48.892;9.544;2023-09-30T06:28:51;11.07;;;5.90;;
1467;SDS011;727;48.892;9.544;2023-09-30T06:31:19;14.87;;;5.17;;
1467;SDS011;727;48.892;9.544;2023-09-30T06:33:49;7.00;;;5.63;;
1467;SDS011;727;48.892;9.544;2023-09-30T06:36:15;11.23;;;6.03;;
1467;SDS011;727;48.892;9.544;2023-09-30T06:38:42;6.83;;;5.47;;
1467;SDS011;727;48.892;9.544;2023-09-30T06:41:14;10.90;;;6.73;;
1467;SDS011;727;48.892;9.544;2023-09-30T06:43:41;6.43;;;5.03;;
1467;SDS011;727;48.892;9.544;2023-09-30T06:46:08;8.27;;;5.53;;
1467;SDS011;727;48.892;9.544;2023-09-30T06:48:35;8.53;;;5.80;;
1467;SDS011;727;48.892;9.544;2023-09-30T06:51:04;7.80;;;5.70;;
1467;SDS011;727;48.892;9.544;2023-09-30T06:53:31;7.90;;;5.40;;
1467;SDS011;727;48.892;9.544;2023-09-30T06:55:58;9.57;;;6.87;;
1467;SDS011;727;48.892;9.544;2023-09-30T06:58:24;8.80;;;7.30;;
1467;SDS011;727;48.892;9.544;2023-09-30T07:00:51;9.13;;;7.27;;
1467;SDS011;727;48.892;9.544;2023-09-30T07:03:19;10.60;;;5.80;;
1467;SDS011;727;48.892;9.544;2023-09-30T07:05:46;10.00;;;6.57;;
1467;SDS011;727;48.892;9.544;2023-09-30T07:08:16;7.60;;;6.90;;
1467;SDS011;727;48.892;9.544;2023-09-30T07:10:43;10.27;;;7.07;;
1467;SDS011;727;48.892;9.544;2023-09-30T07:13:11;10.17;;;6.27;;
1467;SDS011;727;48.892;9.544;2023-09-30T07:15:37;9.87;;;6.30;;
1467;SDS011;727;48.892;9.544;2023-09-30T07:18:04;6.17;;;5.50;;
1467;SDS011;727;48.892;9.544;2023-09-30T07:20:31;11.00;;;6.63;;
1467;SDS011;727;48.892;9.544;2023-09-30T07:22:58;12.03;;;7.13;;
1467;SDS011;727;48.892;9.544;2023-09-30T07:25:26;10.80;;;7.43;;
1467;SDS011;727;48.892;9.544;2023-09-30T07:27:53;9.97;;;8.13;;
1467;SDS011;727;48.892;9.544;2023-09-30T07:30:19;7.10;;;6.13;;
1467;SDS011;727;48.892;9.544;2023-09-30T07:32:46;7.83;;;6.80;;
1467;SDS011;727;48.892;9.544;2023-09-30T07:35:13;12.33;;;6.50;;
1467;SDS011;727;48.892;9.544;2023-09-30T07:37:40;11.00;;;6.80;;
1467;SDS011;727;48.892;9.544;2023-09-30T07:40:08;7.00;;;6.30;;
1467;SDS011;727;48.892;9.544;2023-09-30T07:42:36;9.23;;;6.87;;
1467;SDS011;727;48.892;9.544;2023-09-30T07:45:03;12.90;;;7.23;;
1467;SDS011;727;48.892;9.544;2023-09-30T07:47:31;11.37;;;6.07;;
1467;SDS011;727;48.892;9.544;2023-09-30T07:49:59;9.57;;;6.43;;
1467;SDS011;727;48.892;9.544;2023-09-30T07:52:27;9.60;;;6.10;;
1467;SDS011;727;48.892;9.544;2023-09-30T07:54:54;7.63;;;6.23;;
1467;SDS011;727;48.892;9.544;2023-09-30T07:57:20;7.60;;;5.70;;
1467;SDS011;727;48.892;9.544;2023-09-30T07:59:48;19.10;;;6.30;;
1467;SDS011;727;48.892;9.544;2023-09-30T08:02:15;8.60;;;5.77;;
1467;SDS011;727;48.892;9.544;2023-09-30T08:04:42;8.93;;;6.63;;
1467;SDS011;727;48.892;9.544;2023-09-30T08:07:09;9.60;;;6.00;;
1467;SDS011;727;48.892;9.544;2023-09-30T08:09:36;7.93;;;4.97;;
1467;SDS011;727;48.892;9.544;2023-09-30T08:12:03;11.10;;;6.03;;
1467;SDS011;727;48.892;9.544;2023-09-30T08:14:31;6.37;;;5.30;;
1467;SDS011;727;48.892;9.544;2023-09-30T08:16:59;9.37;;;6.00;;
1467;SDS011;727;48.892;9.544;2023-09-30T08:19:27;7.10;;;6.13;;
1467;SDS011;727;48.892;9.544;2023-09-30T08:21:54;12.30;;;6.50;;
1467;SDS011;727;48.892;9.544;2023-09-30T08:24:21;6.47;;;5.03;;
1467;SDS011;727;48.892;9.544;2023-09-30T08:26:47;8.97;;;6.67;;
1467;SDS011;727;48.892;9.544;2023-09-30T08:29:14;9.20;;;6.00;;
1467;SDS011;727;48.892;9.544;2023-09-30T08:31:41;7.87;;;5.80;;
1467;SDS011;727;48.892;9.544;2023-09-30T08:34:09;9.77;;;6.30;;
1467;SDS011;727;48.892;9.544;2023-09-30T08:36:36;6.33;;;5.77;;
1467;SDS011;727;48.892;9.544;2023-09-30T08:39:03;9.00;;;5.90;;
1467;SDS011;727;48.892;9.544;2023-09-30T08:41:30;8.67;;;7.03;;
1467;SDS011;727;48.892;9.544;2023-09-30T08:43:59;7.53;;;5.70;;
1467;SDS011;727;48.892;9.544;2023-09-30T08:46:28;7.63;;;5.57;;
1467;SDS011;727;48.892;9.544;2023-09-30T08:48:57;9.90;;;5.70;;
1467;SDS011;727;48.892;9.544;2023-09-30T08:51:27;6.00;;;5.40;;
1467;SDS011;727;48.892;9.544;2023-09-30T08:53:56;8.07;;;5.13;;
1467;SDS011;727;48.892;9.544;2023-09-30T08:56:24;6.07;;;5.50;;
1467;SDS011;727;48.892;9.544;2023-09-30T08:58:53;8.00;;;5.00;;
1467;SDS011;727;48.892;9.544;2023-09-30T09:01:22;9.20;;;6.13;;
1467;SDS011;727;48.892;9.544;2023-09-30T09:03:50;7.73;;;6.77;;
1467;SDS011;727;48.892;9.544;2023-09-30T09:06:18;7.80;;;5.23;;
1467;SDS011;727;48.892;9.544;2023-09-30T09:08:46;8.40;;;5.63;;
1467;SDS011;727;48.892;9.544;2023-09-30T09:11:13;8.13;;;6.30;;
1467;SDS011;727;48.892;9.544;2023-09-30T09:13:46;6.03;;;4.90;;
1467;SDS011;727;48.892;9.544;2023-09-30T09:16:15;6.70;;;5.00;;
1467;SDS011;727;48.892;9.544;2023-09-30T09:18:43;8.10;;;5.30;;
1467;SDS011;727;48.892;9.544;2023-09-30T09:21:11;11.03;;;6.30;;
1467;SDS011;727;48.892;9.544;2023-09-30T09:23:39;10.70;;;6.03;;
1467;SDS011;727;48.892;9.544;2023-09-30T09:26:07;9.20;;;6.40;;
1467;SDS011;727;48.892;9.544;2023-09-30T09:28:35;6.57;;;5.30;;
1467;SDS011;727;48.892;9.544;2023-09-30T09:31:04;8.13;;;5.40;;
1467;SDS011;727;48.892;9.544;2023-09-30T09:33:46;8.13;;;5.60;;
1467;SDS011;727;48.892;9.544;2023-09-30T09:36:14;7.37;;;5.07;;
1467;SDS011;727;48.892;9.544;2023-09-30T09:38:44;7.87;;;4.80;;
1467;SDS011;727;48.892;9.544;2023-09-30T09:41:14;12.43;;;6.37;;
1467;SDS011;727;48.892;9.544;2023-09-30T09:43:41;5.83;;;4.43;;
1467;SDS011;727;48.892;9.544;2023-09-30T09:46:08;10.90;;;5.37;;
1467;SDS011;727;48.892;9.544;2023-09-30T09:48:35;7.47;;;5.20;;
1467;SDS011;727;48.892;9.544;2023-09-30T09:51:03;8.23;;;5.37;;
1467;SDS011;727;48.892;9.544;2023-09-30T09:53:32;30.37;;;7.83;;
1467;SDS011;727;48.892;9.544;2023-09-30T09:56:01;6.87;;;5.87;;
1467;SDS011;727;48.892;9.544;2023-09-30T09:58:32;10.20;;;4.97;;
1467;SDS011;727;48.892;9.544;2023-09-30T10:01:00;6.53;;;4.60;;
1467;SDS011;727;48.892;9.544;2023-09-30T10:03:27;7.17;;;5.47;;
1467;SDS011;727;48.892;9.544;2023-09-30T10:05:54;5.77;;;5.00;;
1467;SDS011;727;48.892;9.544;2023-09-30T10:08:21;11.13;;;5.43;;
1467;SDS011;727;48.892;9.544;2023-09-30T10:10:55;7.10;;;4.60;;
1467;SDS011;727;48.892;9.544;2023-09-30T10:19:16;6.70;;;4.93;;
1467;SDS011;727;48.892;9.544;2023-09-30T10:24:48;9.73;;;4.80;;
1467;SDS011;727;48.892;9.544;2023-09-30T10:27:31;12.57;;;4.83;;
1467;SDS011;727;48.892;9.544;2023-09-30T10:30:06;6.93;;;4.73;;
1467;SDS011;727;48.892;9.544;2023-09-30T10:35:46;6.30;;;4.13;;
1467;SDS011;727;48.892;9.544;2023-09-30T10:41:09;9.60;;;5.53;;
1467;SDS011;727;48.892;9.544;2023-09-30T10:43:38;9.10;;;5.37;;
1467;SDS011;727;48.892;9.544;2023-09-30T10:49:17;7.03;;;4.20;;
1467;SDS011;727;48.892;9.544;2023-09-30T10:52:01;7.53;;;4.50;;
1467;SDS011;727;48.892;9.544;2023-09-30T10:54:28;10.40;;;5.77;;
1467;SDS011;727;48.892;9.544;2023-09-30T10:56:56;6.87;;;4.40;;
1467;SDS011;727;48.892;9.544;2023-09-30T10:59:25;5.53;;;3.70;;
1467;SDS011;727;48.892;9.544;2023-09-30T11:01:53;6.63;;;4.00;;
1467;SDS011;727;48.892;9.544;2023-09-30T11:04:20;9.70;;;5.57;;
1467;SDS011;727;48.892;9.544;2023-09-30T11:06:47;6.50;;;5.10;;
1467;SDS011;727;48.892;9.544;2023-09-30T11:09:15;7.97;;;4.20;;
1467;SDS011;727;48.892;9.544;2023-09-30T11:11:43;7.43;;;5.00;;
1467;SDS011;727;48.892;9.544;2023-09-30T11:14:17;7.27;;;4.70;;
1467;SDS011;727;48.892;9.544;2023-09-30T11:16:44;5.83;;;4.47;;
1467;SDS011;727;48.892;9.544;2023-09-30T11:19:13;6.17;;;5.10;;
1467;SDS011;727;48.892;9.544;2023-09-30T11:21:40;7.23;;;5.00;;
1467;SDS011;727;48.892;9.544;2023-09-30T11:24:08;8.23;;;5.57;;
1467;SDS011;727;48.892;9.544;2023-09-30T11:26:35;10.33;;;5.50;;
1467;SDS011;727;48.892;9.544;2023-09-30T11:29:05;7.47;;;4.80;;
1467;SDS011;727;48.892;9.544;2023-09-30T11:31:33;6.93;;;5.53;;
1467;SDS011;727;48.892;9.544;2023-09-30T11:34:00;9.20;;;5.87;;
1467;SDS011;727;48.892;9.544;2023-09-30T11:36:30;9.47;;;6.10;;
1467;SDS011;727;48.892;9.544;2023-09-30T11:38:57;11.73;;;6.40;;
1467;SDS011;727;48.892;9.544;2023-09-30T11:41:32;9.60;;;5.60;;
1467;SDS011;727;48.892;9.544;2023-09-30T11:44:02;9.87;;;5.50;;
1467;SDS011;727;48.892;9.544;2023-09-30T11:46:32;9.67;;;5.90;;
1467;SDS011;727;48.892;9.544;2023-09-30T11:49:23;7.80;;;5.80;;
1467;SDS011;727;48.892;9.544;2023-09-30T11:51:53;10.40;;;6.93;;
1467;SDS011;727;48.892;9.544;2023-09-30T11:54:20;11.60;;;6.80;;
1467;SDS011;727;48.892;9.544;2023-09-30T11:56:48;9.10;;;6.47;;
1467;SDS011;727;48.892;9.544;2023-09-30T11:59:16;8.97;;;6.00;;
1467;SDS011;727;48.892;9.544;2023-09-30T12:01:44;7.90;;;5.97;;
1467;SDS011;727;48.892;9.544;2023-09-30T12:04:13;8.47;;;6.07;;
1467;SDS011;727;48.892;9.544;2023-09-30T12:06:42;9.80;;;5.90;;
1467;SDS011;727;48.892;9.544;2023-09-30T12:09:10;9.23;;;6.23;;
1467;SDS011;727;48.892;9.544;2023-09-30T12:11:39;7.93;;;5.57;;
1467;SDS011;727;48.892;9.544;2023-09-30T12:14:08;10.07;;;6.47;;
1467;SDS011;727;48.892;9.544;2023-09-30T12:16:35;9.17;;;6.57;;
1467;SDS011;727;48.892;9.544;2023-09-30T12:19:02;10.43;;;6.97;;
1467;SDS011;727;48.892;9.544;2023-09-30T12:21:30;10.73;;;5.97;;
1467;SDS011;727;48.892;9.544;2023-09-30T12:23:56;10.33;;;6.60;;
1467;SDS011;727;48.892;9.544;2023-09-30T12:26:25;10.57;;;6.40;;
1467;SDS011;727;48.892;9.544;2023-09-30T12:28:51;10.90;;;6.40;;
1467;SDS011;727;48.892;9.544;2023-09-30T12:31:18;9.63;;;6.57;;
1467;SDS011;727;48.892;9.544;2023-09-30T12:33:46;11.70;;;6.77;;
1467;SDS011;727;48.892;9.544;2023-09-30T12:36:15;9.17;;;5.10;;
1467;SDS011;727;48.892;9.544;2023-09-30T12:38:42;7.77;;;5.90;;
1467;SDS011;727;48.892;9.544;2023-09-30T12:41:09;8.70;;;6.10;;
1467;SDS011;727;48.892;9.544;2023-09-30T12:43:37;15.37;;;6.50;;
1467;SDS011;727;48.892;9.544;2023-09-30T12:46:07;8.30;;;5.40;;
1467;SDS011;727;48.892;9.544;2023-09-30T12:48:34;11.30;;;5.80;;
1467;SDS011;727;48.892;9.544;2023-09-30T12:51:03;10.53;;;6.60;;
1467;SDS011;727;48.892;9.544;2023-09-30T12:53:31;11.10;;;5.77;;
1467;SDS011;727;48.892;9.544;2023-09-30T12:55:58;8.50;;;5.37;;
1467;SDS011;727;48.892;9.544;2023-09-30T12:58:25;7.57;;;5.77;;
1467;SDS011;727;48.892;9.544;2023-09-30T13:00:54;7.17;;;4.90;;
1467;SDS011;727;48.892;9.544;2023-09-30T13:03:25;7.57;;;5.70;;
1467;SDS011;727;48.892;9.544;2023-09-30T13:05:51;15.40;;;6.50;;
1467;SDS011;727;48.892;9.544;2023-09-30T13:08:19;17.13;;;6.67;;
1467;SDS011;727;48.892;9.544;2023-09-30T13:10:45;10.10;;;6.43;;
1467;SDS011;727;48.892;9.544;2023-09-30T13:13:16;9.50;;;6.47;;
1467;SDS011;727;48.892;9.544;2023-09-30T13:15:42;11.67;;;6.40;;
1467;SDS011;727;48.892;9.544;2023-09-30T13:18:11;9.53;;;5.73;;
1467;SDS011;727;48.892;9.544;2023-09-30T13:20:38;11.83;;;7.30;;
1467;SDS011;727;48.892;9.544;2023-09-30T13:23:04;9.83;;;7.47;;
1467;SDS011;727;48.892;9.544;2023-09-30T13:25:31;10.80;;;6.30;;
1467;SDS011;727;48.892;9.544;2023-09-30T13:27:59;12.00;;;6.87;;
1467;SDS011;727;48.892;9.544;2023-09-30T13:30:26;9.10;;;5.90;;
1467;SDS011;727;48.892;9.544;2023-09-30T13:32:54;11.07;;;6.40;;
1467;SDS011;727;48.892;9.544;2023-09-30T13:35:22;10.70;;;6.40;;
1467;SDS011;727;48.892;9.544;2023-09-30T13:37:49;9.47;;;6.30;;
1467;SDS011;727;48.892;9.544;2023-09-30T13:40:19;11.20;;;6.30;;
1467;SDS011;727;48.892;9.544;2023-09-30T13:42:45;7.83;;;6.47;;
1467;SDS011;727;48.892;9.544;2023-09-30T13:45:12;10.00;;;6.40;;
1467;SDS011;727;48.892;9.544;2023-09-30T13:47:45;13.43;;;7.83;;
1467;SDS011;727;48.892;9.544;2023-09-30T13:50:20;15.33;;;7.00;;
1467;SDS011;727;48.892;9.544;2023-09-30T13:52:50;11.10;;;6.30;;
1467;SDS011;727;48.892;9.544;2023-09-30T13:55:25;10.00;;;6.30;;
1467;SDS011;727;48.892;9.544;2023-09-30T13:57:52;12.17;;;6.63;;
1467;SDS011;727;48.892;9.544;2023-09-30T14:00:19;16.10;;;8.63;;
1467;SDS011;727;48.892;9.544;2023-09-30T14:02:46;9.93;;;6.17;;
1467;SDS011;727;48.892;9.544;2023-09-30T14:05:13;10.93;;;7.07;;
1467;SDS011;727;48.892;9.544;2023-09-30T14:07:41;12.63;;;7.80;;
1467;SDS011;727;48.892;9.544;2023-09-30T14:10:08;9.10;;;6.20;;
1467;SDS011;727;48.892;9.544;2023-09-30T14:12:36;10.70;;;6.40;;
1467;SDS011;727;48.892;9.544;2023-09-30T14:15:04;11.10;;;6.23;;
1467;SDS011;727;48.892;9.544;2023-09-30T14:17:32;11.20;;;6.70;;
1467;SDS011;727;48.892;9.544;2023-09-30T14:20:00;11.77;;;6.67;;
1467;SDS011;727;48.892;9.544;2023-09-30T14:22:27;10.23;;;7.00;;
1467;SDS011;727;48.892;9.544;2023-09-30T14:24:55;8.33;;;5.63;;
1467;SDS011;727;48.892;9.544;2023-09-30T14:27:22;10.00;;;6.37;;
1467;SDS011;727;48.892;9.544;2023-09-30T14:29:48;14.20;;;6.93;;
1467;SDS011;727;48.892;9.544;2023-09-30T14:32:15;9.03;;;6.07;;
1467;SDS011;727;48.892;9.544;2023-09-30T14:34:42;10.30;;;7.23;;
1467;SDS011;727;48.892;9.544;2023-09-30T14:37:09;10.10;;;5.77;;
1467;SDS011;727;48.892;9.544;2023-09-30T14:39:36;10.43;;;5.97;;
1467;SDS011;727;48.892;9.544;2023-09-30T14:42:04;8.53;;;5.80;;
1467;SDS011;727;48.892;9.544;2023-09-30T14:44:31;9.17;;;6.47;;
1467;SDS011;727;48.892;9.544;2023-09-30T14:46:58;9.47;;;5.67;;
1467;SDS011;727;48.892;9.544;2023-09-30T14:49:37;7.80;;;5.23;;
1467;SDS011;727;48.892;9.544;2023-09-30T14:52:04;10.63;;;6.00;;
1467;SDS011;727;48.892;9.544;2023-09-30T14:54:31;8.13;;;5.80;;
1467;SDS011;727;48.892;9.544;2023-09-30T14:56:58;9.80;;;7.00;;
1467;SDS011;727;48.892;9.544;2023-09-30T14:59:26;8.07;;;5.60;;
1467;SDS011;727;48.892;9.544;2023-09-30T15:01:54;9.03;;;5.53;;
1467;SDS011;727;48.892;9.544;2023-09-30T15:04:21;8.10;;;5.50;;
1467;SDS011;727;48.892;9.544;2023-09-30T15:06:49;7.77;;;5.60;;
1467;SDS011;727;48.892;9.544;2023-09-30T15:09:16;10.60;;;5.70;;
1467;SDS011;727;48.892;9.544;2023-09-30T15:11:43;6.70;;;4.87;;
1467;SDS011;727;48.892;9.544;2023-09-30T15:14:09;8.80;;;5.73;;
1467;SDS011;727;48.892;9.544;2023-09-30T15:16:38;7.10;;;5.13;;
1467;SDS011;727;48.892;9.544;2023-09-30T15:19:04;9.93;;;4.90;;
1467;SDS011;727;48.892;9.544;2023-09-30T15:21:31;9.07;;;5.87;;
1467;SDS011;727;48.892;9.544;2023-09-30T15:23:58;9.30;;;6.33;;
1467;SDS011;727;48.892;9.544;2023-09-30T15:26:27;9.17;;;5.63;;
1467;SDS011;727;48.892;9.544;2023-09-30T15:28:53;7.73;;;6.13;;
1467;SDS011;727;48.892;9.544;2023-09-30T15:31:20;7.70;;;5.23;;
1467;SDS011;727;48.892;9.544;2023-09-30T15:33:53;8.07;;;5.03;;
1467;SDS011;727;48.892;9.544;2023-09-30T15:36:20;10.83;;;6.20;;
1467;SDS011;727;48.892;9.544;2023-09-30T15:38:47;7.57;;;5.53;;
1467;SDS011;727;48.892;9.544;2023-09-30T15:41:15;9.63;;;5.43;;
1467;SDS011;727;48.892;9.544;2023-09-30T15:43:46;9.37;;;5.50;;
1467;SDS011;727;48.892;9.544;2023-09-30T15:46:13;8.70;;;5.80;;
1467;SDS011;727;48.892;9.544;2023-09-30T15:48:40;11.10;;;5.87;;